createdAt,value
2018-01-08T01:19:42.968Z,25.00
2018-01-08T02:52:19.457Z,25.00
2018-01-08T02:54:47.756Z,25.70
2018-01-08T02:57:15.967Z,25.50
2018-01-08T02:59:44.966Z,25.10
2018-01-08T03:02:13.927Z,25.10
2018-01-08T03:04:42.154Z,25.10
2018-01-08T03:07:10.325Z,24.90
2018-01-08T03:09:38.522Z,24.80
2018-01-08T03:12:06.733Z,24.70
2018-01-08T03:14:34.963Z,24.70
2018-01-08T03:17:03.126Z,24.10
2018-01-08T03:19:31.334Z,24.60
2018-01-08T03:21:59.504Z,24.50
2018-01-08T03:24:27.762Z,24.50
2018-01-08T03:26:55.939Z,24.60
2018-01-08T03:29:24.154Z,24.60
2018-01-08T03:31:52.386Z,24.60
2018-01-08T03:34:20.564Z,24.60
2018-01-08T03:36:48.785Z,24.60
2018-01-08T03:39:16.968Z,24.60
2018-01-08T03:41:45.967Z,24.60
2018-01-08T03:44:14.288Z,24.60
2018-01-08T03:46:42.599Z,24.60
2018-01-08T03:49:10.895Z,24.60
2018-01-08T03:51:39.863Z,24.50
2018-01-08T03:54:08.115Z,24.50
2018-01-08T03:56:36.317Z,24.50
2018-01-08T03:59:04.547Z,24.50
2018-01-08T04:01:32.726Z,24.60
2018-01-08T04:04:00.893Z,24.40
2018-01-08T04:06:29.366Z,24.50
2018-01-08T04:08:57.557Z,24.40
2018-01-08T04:11:25.733Z,24.40
2018-01-08T04:13:53.900Z,24.30
2018-01-08T04:16:22.087Z,24.30
2018-01-08T04:18:50.267Z,24.30
2018-01-08T04:21:18.475Z,24.20
2018-01-08T04:23:46.682Z,24.20
2018-01-08T04:26:14.869Z,24.10
2018-01-08T04:28:43.045Z,24.20
2018-01-08T04:31:11.218Z,24.20
2018-01-08T04:33:39.400Z,24.30
2018-01-08T04:36:07.702Z,24.20
2018-01-08T04:38:35.882Z,24.20
2018-01-08T04:41:04.056Z,24.10
2018-01-08T04:43:32.240Z,24.20
2018-01-08T04:46:00.464Z,24.30
2018-01-08T04:48:28.675Z,24.00
2018-01-08T04:50:56.841Z,24.10
2018-01-08T04:53:24.997Z,24.10
2018-01-08T04:55:53.225Z,24.20
2018-01-08T04:58:21.464Z,24.10
2018-01-08T05:00:49.686Z,24.10
2018-01-08T05:03:18.695Z,24.20
2018-01-08T05:05:46.946Z,24.10
2018-01-08T05:08:15.889Z,24.00
2018-01-08T05:10:44.089Z,24.00
2018-01-08T05:13:12.279Z,24.10
2018-01-08T05:15:40.495Z,24.10
2018-01-08T05:18:08.679Z,24.00
2018-01-08T05:20:36.922Z,23.90
2018-01-08T05:23:05.854Z,23.90
2018-01-08T05:25:34.037Z,23.90
2018-01-08T05:28:02.194Z,24.10
2018-01-08T05:30:30.357Z,24.00
2018-01-08T05:32:58.542Z,24.00
2018-01-08T05:35:27.161Z,23.90
2018-01-08T05:37:55.367Z,23.90
2018-01-08T05:40:23.593Z,23.90
2018-01-08T05:42:51.790Z,23.90
2018-01-08T05:45:19.968Z,23.90
2018-01-08T05:47:48.139Z,23.80
2018-01-08T05:50:16.310Z,23.90
2018-01-08T05:52:44.614Z,23.80
2018-01-08T05:55:15.310Z,23.80
2018-01-08T05:57:43.599Z,23.80
2018-01-08T06:00:11.810Z,23.80
2018-01-08T06:02:40.033Z,23.80
2018-01-08T06:05:08.305Z,23.80
2018-01-08T06:07:36.595Z,23.90
2018-01-08T06:10:04.804Z,23.80
2018-01-08T06:12:33.080Z,23.80
2018-01-08T06:15:02.242Z,23.80
2018-01-08T06:17:30.445Z,23.80
2018-01-08T06:20:01.704Z,23.90
2018-01-08T06:22:29.966Z,23.80
2018-01-08T06:24:58.178Z,23.80
2018-01-08T06:27:26.427Z,24.00
2018-01-08T06:29:54.692Z,23.90
2018-01-08T06:32:22.914Z,23.80
2018-01-08T06:34:51.138Z,23.80
2018-01-08T06:37:20.111Z,23.70
2018-01-08T06:39:48.330Z,23.70
2018-01-08T06:42:16.530Z,23.70
2018-01-08T06:44:44.758Z,23.70
2018-01-08T06:47:13.707Z,23.90
2018-01-08T06:49:41.925Z,24.00
2018-01-08T06:52:10.902Z,24.20
2018-01-08T06:54:40.253Z,24.30
2018-01-08T06:57:08.554Z,24.30
2018-01-08T06:59:36.842Z,24.50
2018-01-08T07:02:05.024Z,24.40
2018-01-08T07:04:34.016Z,24.50
2018-01-08T07:07:02.975Z,24.50
2018-01-08T07:09:31.294Z,24.40
2018-01-08T07:11:59.473Z,24.40
2018-01-08T07:14:27.725Z,24.40
2018-01-08T07:16:55.979Z,24.40
2018-01-08T07:19:24.191Z,24.40
2018-01-08T07:21:53.192Z,24.90
2018-01-08T07:24:22.191Z,24.40
2018-01-08T07:26:50.816Z,24.30
2018-01-08T07:29:19.061Z,24.30
2018-01-08T07:31:47.278Z,24.20
2018-01-08T07:34:15.501Z,24.10
2018-01-08T07:36:43.740Z,24.10
2018-01-08T07:39:11.930Z,24.00
2018-01-08T07:41:40.958Z,23.90
2018-01-08T07:44:09.174Z,23.90
2018-01-08T07:46:38.569Z,23.90
2018-01-08T07:49:06.790Z,23.90
2018-01-08T07:51:35.008Z,23.80
2018-01-08T07:54:03.203Z,23.80
2018-01-08T07:56:31.410Z,23.80
2018-01-08T07:58:59.611Z,23.80
2018-01-08T08:01:27.797Z,23.90
2018-01-08T08:03:56.082Z,23.90
2018-01-08T08:06:24.271Z,23.80
2018-01-08T08:08:52.479Z,23.70
2018-01-08T08:11:20.686Z,24.10
2018-01-08T08:13:48.876Z,23.80
2018-01-08T08:16:17.114Z,23.90
2018-01-08T08:18:45.321Z,23.80
2018-01-08T08:21:13.527Z,23.80
2018-01-08T08:23:47.242Z,23.70
2018-01-08T08:26:15.589Z,23.70
2018-01-08T08:28:43.949Z,23.70
2018-01-08T08:31:12.472Z,23.80
2018-01-08T08:33:40.896Z,23.60
2018-01-08T08:36:09.691Z,23.60
2018-01-08T08:38:39.232Z,23.60
2018-01-08T08:41:07.515Z,23.60
2018-01-08T08:43:35.833Z,23.50
2018-01-08T08:48:38.833Z,23.60
2018-01-08T08:51:07.116Z,23.50
2018-01-08T08:53:35.376Z,23.50
2018-01-08T08:56:03.678Z,23.50
2018-01-08T08:58:32.010Z,23.40
2018-01-08T09:01:00.390Z,23.50
2018-01-08T09:03:28.807Z,23.40
2018-01-08T09:05:57.083Z,23.40
2018-01-08T09:08:25.460Z,23.50
2018-01-08T09:10:53.843Z,23.50
2018-01-08T09:13:22.198Z,23.50
2018-01-08T09:15:50.487Z,23.50
2018-01-08T09:18:18.814Z,23.40
2018-01-08T09:20:48.019Z,23.50
2018-01-08T09:23:16.293Z,23.40
2018-01-08T09:25:44.582Z,23.50
2018-01-08T09:28:12.828Z,23.40
2018-01-08T09:30:41.137Z,23.50
2018-01-08T09:33:09.363Z,23.40
2018-01-08T09:35:37.548Z,23.40
2018-01-08T09:38:06.570Z,23.40
2018-01-08T09:40:35.627Z,23.40
2018-01-08T09:43:03.837Z,23.30
2018-01-08T09:45:32.038Z,23.30
2018-01-08T09:48:00.217Z,23.30
2018-01-08T09:50:28.414Z,23.30
2018-01-08T09:52:56.613Z,23.30
2018-01-08T09:55:25.571Z,23.30
2018-01-08T09:57:53.737Z,23.20
2018-01-08T10:00:21.956Z,23.20
2018-01-08T10:03:08.840Z,23.30
2018-01-08T10:05:54.648Z,23.20
2018-01-08T10:08:41.314Z,23.30
2018-01-08T10:11:27.341Z,23.30
2018-01-08T10:14:14.087Z,23.30
2018-01-08T10:16:59.973Z,23.20
2018-01-08T10:20:00.711Z,23.20
2018-01-08T10:22:28.960Z,23.20
2018-01-08T10:24:57.186Z,23.30
2018-01-08T10:27:25.398Z,23.10
2018-01-08T10:29:54.371Z,23.10
2018-01-08T10:32:22.614Z,23.10
2018-01-08T10:34:50.802Z,23.20
2018-01-08T10:37:18.961Z,23.20
2018-01-08T10:39:47.164Z,23.10
2018-01-08T10:42:20.842Z,23.10
2018-01-08T10:44:54.571Z,23.10
2018-01-08T10:47:28.245Z,23.00
2018-01-08T10:50:02.080Z,23.10
2018-01-08T10:52:30.298Z,23.00
2018-01-08T10:55:02.335Z,23.10
2018-01-08T10:57:31.298Z,23.10
2018-01-08T10:59:59.630Z,23.00
2018-01-08T11:02:33.446Z,23.00
2018-01-08T11:05:01.630Z,23.00
2018-01-08T11:07:29.821Z,22.90
2018-01-08T11:09:58.002Z,22.90
2018-01-08T11:12:26.179Z,23.40
2018-01-08T11:14:54.378Z,22.90
2018-01-08T11:17:23.334Z,22.80
2018-01-08T11:19:51.506Z,22.70
2018-01-08T11:22:19.700Z,22.80
2018-01-08T11:24:47.891Z,22.70
2018-01-08T11:27:16.941Z,22.70
2018-01-08T11:29:45.129Z,22.60
2018-01-08T11:35:08.743Z,22.60
2018-01-08T11:37:36.923Z,22.80
2018-01-08T11:40:05.110Z,22.70
2018-01-08T11:42:33.507Z,22.70
2018-01-08T11:45:01.731Z,22.70
2018-01-08T11:47:29.986Z,22.60
2018-01-08T11:49:58.309Z,23.10
2018-01-08T11:52:27.483Z,22.60
2018-01-08T11:54:56.618Z,22.50
2018-01-08T11:57:24.857Z,22.50
2018-01-08T11:59:53.830Z,22.40
2018-01-08T12:02:22.046Z,22.40
2018-01-08T12:04:50.295Z,22.30
2018-01-08T12:07:19.254Z,22.40
2018-01-08T12:09:47.442Z,22.40
2018-01-08T12:12:16.504Z,22.40
2018-01-08T12:14:44.718Z,22.30
2018-01-08T12:17:13.671Z,22.90
2018-01-08T12:19:41.867Z,22.40
2018-01-08T12:22:10.104Z,22.20
2018-01-08T12:24:38.460Z,22.30
2018-01-08T12:27:06.687Z,22.20
2018-01-08T12:29:34.911Z,22.20
2018-01-08T12:32:03.092Z,22.10
2018-01-08T12:34:31.442Z,22.10
2018-01-08T12:37:02.565Z,22.10
2018-01-08T12:39:31.625Z,22.20
2018-01-08T12:41:59.846Z,22.20
2018-01-08T12:44:28.947Z,22.00
2018-01-08T12:46:57.920Z,22.00
2018-01-08T12:49:27.056Z,22.00
2018-01-08T12:52:00.842Z,22.00
2018-01-08T12:57:17.448Z,21.90
2018-01-08T13:00:00.345Z,22.00
2018-01-08T13:02:35.010Z,22.00
2018-01-08T13:05:07.440Z,22.00
2018-01-08T13:07:41.259Z,21.90
2018-01-08T13:10:20.645Z,22.00
2018-01-08T13:12:53.606Z,21.80
2018-01-08T13:15:22.123Z,22.00
2018-01-08T13:17:58.869Z,21.90
2018-01-08T13:20:36.093Z,22.00
2018-01-08T13:23:05.662Z,21.90
2018-01-08T13:25:38.338Z,22.00
2018-01-08T13:31:10.815Z,21.90
2018-01-08T13:33:40.049Z,21.80
2018-01-08T13:36:08.371Z,21.80
2018-01-08T13:38:37.526Z,21.70
2018-01-08T13:41:05.755Z,21.60
2018-01-08T13:43:37.292Z,21.50
2018-01-08T13:46:05.580Z,21.60
2018-01-08T13:48:33.922Z,21.70
2018-01-08T13:53:55.407Z,21.70
2018-01-08T13:56:23.885Z,21.80
2018-01-08T13:58:53.833Z,22.30
2018-01-08T14:01:27.146Z,21.70
2018-01-08T14:03:57.479Z,21.60
2018-01-08T14:09:03.094Z,21.70
2018-01-08T14:11:35.069Z,21.70
2018-01-08T14:14:20.056Z,21.70
2018-01-08T15:22:58.665Z,21.60
2018-01-08T15:25:27.823Z,22.80
2018-01-08T15:27:56.183Z,22.80
2018-01-08T15:30:24.492Z,22.50
2018-01-08T15:32:54.517Z,22.30
2018-01-08T15:38:19.499Z,22.00
2018-01-08T15:40:52.443Z,21.90
2018-01-08T15:43:22.132Z,21.90
2018-01-08T15:45:52.105Z,21.90
2018-01-08T15:48:21.709Z,21.70
2018-01-08T15:50:50.837Z,21.70
2018-01-08T15:53:19.277Z,21.60
2018-01-08T15:55:47.732Z,21.70
2018-01-08T15:58:16.036Z,21.70
2018-01-08T16:00:44.321Z,21.70
2018-01-08T16:03:13.340Z,21.50
2018-01-08T16:05:41.645Z,21.50
2018-01-08T16:08:09.988Z,21.60
2018-01-08T16:10:38.277Z,21.60
2018-01-08T16:13:06.613Z,21.60
2018-01-08T16:15:34.807Z,21.60
2018-01-08T16:18:03.916Z,21.50
2018-01-08T16:20:32.138Z,21.50
2018-01-08T16:23:00.437Z,21.60
2018-01-08T16:25:30.814Z,21.60
2018-01-08T16:28:01.343Z,21.50
2018-01-08T16:30:29.597Z,21.50
2018-01-08T16:32:57.872Z,21.60
2018-01-08T16:35:26.092Z,21.60
2018-01-08T16:37:54.372Z,21.60
2018-01-08T16:40:22.632Z,21.60
2018-01-08T16:42:51.831Z,21.60
2018-01-08T16:45:21.480Z,21.50
2018-01-08T16:47:49.716Z,21.50
2018-01-08T16:50:18.035Z,21.60
2018-01-08T16:52:47.770Z,21.60
2018-01-08T16:55:16.036Z,21.50
2018-01-08T16:57:44.239Z,21.50
2018-01-08T17:00:12.579Z,21.60
2018-01-08T17:02:40.910Z,21.50
2018-01-08T17:05:09.256Z,21.60
2018-01-08T17:07:38.310Z,21.50
2018-01-08T17:10:07.511Z,22.00
2018-01-08T17:12:36.532Z,21.40
2018-01-08T17:15:04.764Z,21.40
2018-01-08T17:17:33.080Z,21.50
2018-01-08T17:20:01.366Z,21.40
2018-01-08T17:22:29.798Z,21.40
2018-01-08T17:27:54.232Z,21.50
2018-01-08T17:30:26.123Z,21.40
2018-01-08T17:40:07.118Z,21.50
2018-01-08T17:42:36.235Z,21.70
2018-01-08T17:45:04.470Z,21.60
2018-01-08T17:47:32.768Z,21.50
2018-01-08T17:50:01.036Z,21.50
2018-01-08T17:52:30.073Z,21.50
2018-01-08T17:54:58.350Z,21.60
2018-01-08T17:57:26.712Z,21.50
2018-01-08T17:59:54.978Z,21.50
2018-01-08T18:02:23.280Z,21.60
2018-01-08T18:04:51.583Z,21.70
2018-01-08T18:07:20.600Z,21.70
2018-01-08T18:09:48.798Z,21.60
2018-01-08T18:12:17.571Z,21.60
2018-01-08T18:14:46.500Z,21.80
2018-01-08T18:17:14.758Z,21.70
2018-01-08T18:19:43.600Z,21.70
2018-01-08T18:22:11.808Z,21.60
2018-01-08T18:24:39.997Z,21.60
2018-01-08T18:27:09.529Z,21.50
2018-01-08T18:29:37.709Z,21.50
2018-01-08T18:32:05.960Z,21.50
2018-01-08T18:34:36.992Z,21.60
2018-01-08T18:37:05.183Z,21.40
2018-01-08T18:39:34.669Z,21.60
2018-01-08T18:42:03.687Z,21.50
2018-01-08T18:44:31.906Z,21.50
2018-01-08T18:47:00.124Z,21.20
2018-01-08T18:49:28.331Z,21.50
2018-01-08T18:51:57.271Z,21.50
2018-01-08T18:54:25.478Z,21.40
2018-01-08T18:56:54.439Z,21.40
2018-01-08T18:59:22.699Z,21.40
2018-01-08T19:01:51.632Z,21.40
2018-01-08T19:04:20.595Z,21.40
2018-01-08T19:06:48.880Z,21.40
2018-01-08T19:09:17.098Z,21.40
2018-01-08T19:11:45.338Z,21.40
2018-01-08T19:14:13.572Z,21.30
2018-01-08T19:16:41.905Z,21.40
2018-01-08T19:19:10.927Z,21.40
2018-01-08T19:21:39.207Z,21.30
2018-01-08T19:24:07.502Z,21.20
2018-01-08T19:26:35.734Z,21.30
2018-01-08T19:29:04.707Z,21.30
2018-01-08T19:31:32.921Z,21.40
2018-01-08T19:34:01.125Z,21.30
2018-01-08T19:36:29.403Z,21.40
2018-01-08T19:38:57.628Z,21.30
2018-01-08T19:41:26.627Z,21.30
2018-01-08T19:43:54.886Z,21.30
2018-01-08T19:46:23.883Z,21.30
2018-01-08T19:48:53.006Z,21.10
2018-01-08T19:51:21.212Z,21.10
2018-01-08T19:53:49.504Z,21.20
2018-01-08T19:56:17.762Z,21.20
2018-01-08T19:58:46.187Z,21.30
2018-01-08T20:01:14.449Z,21.20
2018-01-08T20:03:42.735Z,21.10
2018-01-08T20:06:11.017Z,21.10
2018-01-08T20:08:39.239Z,21.00
2018-01-08T20:11:07.503Z,21.10
2018-01-08T20:13:35.731Z,21.00
2018-01-08T20:16:03.982Z,21.00
2018-01-08T20:18:32.482Z,21.10
2018-01-08T20:21:00.839Z,21.10
2018-01-08T20:23:29.189Z,21.10
2018-01-08T20:25:57.428Z,21.10
2018-01-08T20:28:25.662Z,21.00
2018-01-08T20:30:53.911Z,21.00
2018-01-08T20:33:22.173Z,20.80
2018-01-08T20:35:50.449Z,20.90
2018-01-08T20:38:18.824Z,20.90
2018-01-08T20:40:47.148Z,20.90
2018-01-08T20:43:15.489Z,20.80
2018-01-08T20:45:43.911Z,20.80
2018-01-08T20:48:13.025Z,20.80
2018-01-08T20:50:41.428Z,20.80
2018-01-08T20:53:09.975Z,20.70
2018-01-08T20:55:38.466Z,20.50
2018-01-08T20:58:08.221Z,20.50
2018-01-08T21:00:40.824Z,20.60
2018-01-08T21:03:09.981Z,20.70
2018-01-08T21:05:38.292Z,20.60
2018-01-08T21:08:08.392Z,20.50
2018-01-08T21:10:37.500Z,20.50
2018-01-08T21:13:05.917Z,21.00
2018-01-08T21:15:34.190Z,20.60
2018-01-08T21:18:02.475Z,20.50
2018-01-08T21:20:30.839Z,20.50
2018-01-08T21:22:59.158Z,20.40
2018-01-08T21:25:27.396Z,20.50
2018-01-08T21:27:55.763Z,20.50
2018-01-08T21:30:24.015Z,20.50
2018-01-08T21:32:53.038Z,20.50
2018-01-08T21:35:21.359Z,20.50
2018-01-08T21:37:49.798Z,20.40
2018-01-08T21:40:18.153Z,20.40
2018-01-08T21:42:46.430Z,20.30
2018-01-08T21:47:49.241Z,20.20
2018-01-08T21:50:17.530Z,20.30
2018-01-08T21:52:45.738Z,20.20
2018-01-08T21:55:13.948Z,20.30
2018-01-08T21:57:43.836Z,20.00
2018-01-08T22:00:12.056Z,19.90
2018-01-08T22:02:40.255Z,20.00
2018-01-08T22:05:09.247Z,19.90
2018-01-08T22:07:37.575Z,19.90
2018-01-08T22:10:05.903Z,20.10
2018-01-08T22:12:34.842Z,19.80
2018-01-08T22:15:03.836Z,19.90
2018-01-08T22:17:32.810Z,19.80
2018-01-08T22:20:00.995Z,19.70
2018-01-08T22:22:29.234Z,19.90
2018-01-08T22:24:57.458Z,19.90
2018-01-08T22:27:25.698Z,20.00
2018-01-08T22:29:53.912Z,19.80
2018-01-08T22:32:22.109Z,20.00
2018-01-08T22:34:50.346Z,19.70
2018-01-08T22:37:19.396Z,19.70
2018-01-08T22:39:47.595Z,19.70
2018-01-08T22:42:15.793Z,19.90
2018-01-08T22:44:43.991Z,19.80
2018-01-08T22:47:15.072Z,19.70
2018-01-08T22:49:44.849Z,19.80
2018-01-08T22:52:13.161Z,19.60
2018-01-08T22:54:41.601Z,19.70
2018-01-08T22:59:44.267Z,19.70
2018-01-08T23:02:13.316Z,19.70
2018-01-08T23:04:41.573Z,19.60
2018-01-08T23:07:09.868Z,19.50
2018-01-08T23:09:38.107Z,19.50
2018-01-08T23:12:08.246Z,19.50
2018-01-08T23:14:37.477Z,19.50
2018-01-08T23:17:05.962Z,19.60
2018-01-08T23:19:34.445Z,19.50
2018-01-08T23:24:39.264Z,19.60
2018-01-08T23:27:07.936Z,19.60
2018-01-08T23:29:36.382Z,19.60
2018-01-08T23:32:04.793Z,19.50
2018-01-08T23:34:33.091Z,19.30
2018-01-08T23:37:01.402Z,19.30
2018-01-08T23:39:30.774Z,19.20
2018-01-08T23:41:59.042Z,19.20
2018-01-08T23:44:28.453Z,19.40
2018-01-08T23:46:56.747Z,19.30
2018-01-08T23:49:25.849Z,19.40
2018-01-08T23:51:54.923Z,19.30
2018-01-08T23:56:58.561Z,19.30
2018-01-08T23:59:35.693Z,19.20
